createdAt,value
2023-05-15T00:01:48.299Z,0.39
2023-05-15T00:03:46.548Z,0.39
2023-05-15T00:05:45.995Z,144.62
2023-05-15T00:07:45.628Z,0.39
2023-05-15T00:09:44.962Z,0.39
2023-05-15T00:11:59.473Z,144.62
2023-05-15T00:13:45.128Z,0.39
2023-05-15T00:15:46.389Z,0.39
2023-05-15T00:17:45.815Z,0.39
2023-05-15T00:19:45.337Z,144.62
2023-05-15T00:21:45.448Z,144.62
2023-05-15T00:23:45.313Z,0.39
2023-05-15T00:25:46.551Z,0.4
2023-05-15T00:27:45.108Z,0.4
2023-05-15T00:29:44.701Z,144.62
2023-05-15T00:31:46.006Z,0.39
2023-05-15T00:33:45.237Z,0.39
2023-05-15T00:35:45.919Z,144.62
2023-05-15T00:37:44.745Z,0.39
2023-05-15T00:39:45.368Z,0.39
2023-05-15T00:41:45.436Z,144.62
2023-05-15T00:43:45.852Z,0.39
2023-05-15T00:45:46.202Z,0.39
2023-05-15T00:47:45.806Z,144.62
2023-05-15T00:49:45.800Z,0.39
2023-05-15T00:51:45.682Z,0.39
2023-05-15T00:53:45.435Z,144.62
2023-05-15T00:55:46.292Z,0.39
2023-05-15T00:57:44.866Z,0.39
2023-05-15T00:59:45.744Z,0.39
2023-05-15T01:01:54.774Z,141.45
2023-05-15T01:03:46.514Z,141.45
2023-05-15T01:05:46.219Z,141.45
2023-05-15T01:07:44.924Z,0.39
2023-05-15T01:09:45.635Z,0.39
2023-05-15T01:11:45.521Z,0.38
2023-05-15T01:13:45.691Z,141.45
2023-05-15T01:15:45.857Z,141.45
2023-05-15T01:17:45.109Z,0.38
2023-05-15T01:19:47.612Z,0.38
2023-05-15T01:21:45.584Z,0.38
2023-05-15T01:23:44.876Z,0.38
2023-05-15T01:25:46.229Z,0.38
2023-05-15T01:27:44.824Z,0.38
2023-05-15T01:29:45.781Z,141.45
2023-05-15T01:31:45.499Z,141.45
2023-05-15T01:33:45.649Z,141.45
2023-05-15T01:35:45.550Z,0.38
2023-05-15T01:37:45.087Z,0.38
2023-05-15T01:39:45.728Z,0.38
2023-05-15T01:41:45.672Z,141.45
2023-05-15T01:43:44.950Z,0.38
2023-05-15T01:45:45.656Z,0.38
2023-05-15T01:47:45.675Z,138.31
2023-05-15T01:49:45.729Z,141.45
2023-05-15T01:51:45.608Z,141.45
2023-05-15T01:53:44.790Z,138.31
2023-05-15T01:55:45.341Z,0.37
2023-05-15T01:57:44.935Z,0.37
2023-05-15T01:59:45.404Z,138.31
2023-05-15T02:01:49.350Z,138.31
2023-05-15T02:03:46.640Z,138.31
2023-05-15T02:05:45.765Z,138.31
2023-05-15T02:07:44.952Z,0.37
2023-05-15T02:09:44.903Z,0.37
2023-05-15T02:11:45.620Z,135.22
2023-05-15T02:13:44.964Z,0.37
2023-05-15T02:15:46.315Z,0.37
2023-05-15T02:17:46.014Z,135.22
2023-05-15T02:19:45.397Z,135.22
2023-05-15T02:21:45.503Z,135.22
2023-05-15T02:23:44.961Z,135.22
2023-05-15T02:25:44.799Z,135.22
2023-05-15T02:27:45.343Z,135.22
2023-05-15T02:29:45.136Z,0.36
2023-05-15T02:31:47.576Z,135.22
2023-05-15T02:33:45.844Z,135.22
2023-05-15T02:35:45.015Z,135.22
2023-05-15T02:37:45.317Z,135.22
2023-05-15T02:39:44.713Z,135.22
2023-05-15T02:41:45.721Z,0.37
2023-05-15T02:43:45.005Z,135.22
2023-05-15T02:45:46.612Z,135.22
2023-05-15T02:47:46.177Z,0.36
2023-05-15T02:49:45.909Z,0.37
2023-05-15T02:51:45.395Z,0.37
2023-05-15T02:53:45.265Z,132.17
2023-05-15T02:55:45.619Z,135.22
2023-05-15T02:57:45.095Z,135.22
2023-05-15T02:59:45.484Z,0.36
2023-05-15T03:01:49.328Z,0.36
2023-05-15T03:03:45.803Z,0.36
2023-05-15T03:05:46.627Z,0.37
2023-05-15T03:07:45.095Z,0.37
2023-05-15T03:09:45.291Z,0.37
2023-05-15T03:11:45.357Z,0.36
2023-05-15T03:13:44.901Z,0.37
2023-05-15T03:15:45.868Z,0.37
2023-05-15T03:17:45.223Z,132.17
2023-05-15T03:19:48.016Z,0.36
2023-05-15T03:21:45.012Z,0.36
2023-05-15T03:23:48.551Z,0.33
2023-05-15T03:25:47.706Z,0.33
2023-05-15T03:27:44.890Z,0.33
2023-05-15T03:29:45.192Z,120.42
2023-05-15T03:31:45.614Z,0.33
2023-05-15T03:33:46.188Z,0.33
2023-05-15T03:35:45.765Z,106.67
2023-05-15T03:37:44.704Z,109.34
2023-05-15T03:39:45.257Z,109.34
2023-05-15T03:41:48.401Z,0.3
2023-05-15T03:43:45.596Z,112.05
2023-05-15T03:45:45.070Z,112.05
2023-05-15T03:47:46.532Z,0.31
2023-05-15T03:49:45.341Z,109.34
2023-05-15T03:51:45.967Z,109.34
2023-05-15T03:53:45.379Z,120.42
2023-05-15T03:55:45.792Z,0.33
2023-05-15T03:57:45.360Z,0.33
2023-05-15T03:59:45.100Z,126.21
2023-05-15T04:02:14.043Z,0.34
2023-05-15T04:03:50.141Z,0.34
2023-05-15T04:05:45.882Z,129.17
2023-05-15T04:07:45.442Z,0.35
2023-05-15T04:09:45.170Z,0.35
2023-05-15T04:11:46.467Z,132.17
2023-05-15T04:13:45.484Z,0.36
2023-05-15T04:15:45.434Z,0.36
2023-05-15T04:17:46.031Z,0.37
2023-05-15T04:19:45.767Z,126.21
2023-05-15T04:21:45.006Z,126.21
2023-05-15T04:23:45.458Z,123.29
2023-05-15T04:25:45.397Z,0.34
2023-05-15T04:27:46.055Z,0.34
2023-05-15T04:30:00.759Z,0.35
2023-05-15T04:31:45.292Z,0.35
2023-05-15T04:33:45.702Z,0.35
2023-05-15T04:35:45.138Z,132.17
2023-05-15T04:37:45.886Z,132.17
2023-05-15T04:39:45.056Z,132.17
2023-05-15T04:41:45.032Z,126.21
2023-05-15T04:43:47.876Z,0.35
2023-05-15T04:45:44.955Z,0.35
2023-05-15T04:47:46.387Z,0.36
2023-05-15T04:49:45.665Z,132.17
2023-05-15T04:51:45.285Z,132.17
2023-05-15T04:53:45.458Z,135.22
2023-05-15T04:55:45.386Z,0.37
2023-05-15T04:57:45.583Z,0.37
2023-05-15T04:59:45.340Z,0.37
2023-05-15T05:01:47.786Z,0.37
2023-05-15T05:03:46.557Z,0.37
2023-05-15T05:05:45.512Z,0.37
2023-05-15T05:07:46.233Z,0.37
2023-05-15T05:09:45.299Z,0.37
2023-05-15T05:11:45.119Z,0.37
2023-05-15T05:13:48.042Z,0.37
2023-05-15T05:15:45.659Z,0.37
2023-05-15T05:17:46.495Z,0.37
2023-05-15T05:19:45.888Z,0.38
2023-05-15T05:21:46.564Z,0.38
2023-05-15T05:23:45.700Z,0.38
2023-05-15T05:25:45.067Z,0.39
2023-05-15T05:27:48.014Z,0.39
2023-05-15T05:29:44.659Z,0.39
2023-05-15T05:31:45.788Z,0.4
2023-05-15T05:33:45.660Z,0.4
2023-05-15T05:35:46.168Z,0.4
2023-05-15T05:37:45.249Z,151.12
2023-05-15T05:39:45.383Z,151.12
2023-05-15T05:41:45.359Z,151.12
2023-05-15T05:43:45.676Z,0.4
2023-05-15T05:45:45.382Z,0.4
2023-05-15T05:47:45.789Z,0.4
2023-05-15T05:49:45.801Z,0.41
2023-05-15T05:51:45.436Z,0.41
2023-05-15T05:53:45.627Z,0.41
2023-05-15T05:55:45.784Z,0.41
2023-05-15T05:57:45.423Z,0.41
2023-05-15T05:59:57.897Z,0.41
2023-05-15T06:01:48.900Z,0.41
2023-05-15T06:03:46.680Z,0.41
2023-05-15T06:05:48.602Z,0.41
2023-05-15T06:07:45.152Z,0.41
2023-05-15T06:09:44.924Z,0.41
2023-05-15T06:11:48.609Z,0.41
2023-05-15T06:13:45.273Z,0.41
2023-05-15T06:15:45.732Z,0.41
2023-05-15T06:17:45.583Z,0.41
2023-05-15T06:19:46.279Z,0.4
2023-05-15T06:21:45.761Z,0.4
2023-05-15T06:23:47.488Z,0.4
2023-05-15T06:25:45.786Z,0.4
2023-05-15T06:27:44.948Z,0.4
2023-05-15T06:29:45.866Z,0.4
2023-05-15T06:31:46.702Z,0.42
2023-05-15T06:33:45.292Z,0.42
2023-05-15T06:35:45.447Z,0.42
2023-05-15T06:37:44.928Z,0.42
2023-05-15T06:39:45.465Z,0.42
2023-05-15T06:41:46.380Z,0.42
2023-05-15T06:43:47.810Z,154.43
2023-05-15T06:45:46.570Z,154.43
2023-05-15T06:47:45.820Z,154.43
2023-05-15T06:49:45.631Z,0.43
2023-05-15T06:51:45.793Z,0.43
2023-05-15T06:53:48.155Z,0.43
2023-05-15T06:55:45.644Z,0.41
2023-05-15T06:57:44.819Z,0.41
2023-05-15T06:59:45.414Z,0.41
2023-05-15T07:01:48.512Z,0.38
2023-05-15T07:03:46.323Z,0.38
2023-05-15T07:05:45.628Z,0.38
2023-05-15T07:07:45.555Z,0.41
2023-05-15T07:09:45.352Z,0.41
2023-05-15T07:11:46.485Z,0.41
2023-05-15T07:13:45.120Z,154.43
2023-05-15T07:15:45.418Z,154.43
2023-05-15T07:17:45.921Z,154.43
2023-05-15T07:19:47.185Z,0.36
2023-05-15T07:21:50.035Z,0.36
2023-05-15T07:24:00.985Z,0.36
2023-05-15T07:25:52.412Z,0.3
2023-05-15T07:29:47.200Z,0.3
2023-05-15T07:31:49.021Z,98.92
2023-05-15T07:33:45.388Z,98.92
2023-05-15T07:35:46.240Z,98.92
2023-05-15T07:37:45.426Z,0.27
2023-05-15T07:39:45.715Z,0.27
2023-05-15T07:41:45.700Z,0.27
2023-05-15T07:43:44.973Z,0.26
2023-05-15T07:45:48.231Z,0.26
2023-05-15T07:47:45.671Z,0.26
2023-05-15T07:49:45.662Z,0.25
2023-05-15T07:51:45.669Z,0.25
2023-05-15T07:53:45.342Z,0.25
2023-05-15T07:55:44.837Z,0.28
2023-05-15T07:57:45.423Z,0.28
2023-05-15T07:59:45.105Z,0.28
2023-05-15T08:01:49.156Z,0.27
2023-05-15T08:03:46.791Z,0.27
2023-05-15T08:05:45.993Z,0.27
2023-05-15T08:07:45.745Z,112.05
2023-05-15T08:09:45.280Z,112.05
2023-05-15T08:11:45.938Z,112.05
2023-05-15T08:13:45.323Z,0.32
2023-05-15T08:15:46.570Z,0.32
2023-05-15T08:17:45.849Z,0.32
2023-05-15T08:19:45.836Z,0.32
2023-05-15T08:21:45.098Z,0.32
2023-05-15T08:23:46.847Z,0.32
2023-05-15T08:25:45.241Z,101.46
2023-05-15T08:27:45.547Z,101.46
2023-05-15T08:29:45.042Z,101.46
2023-05-15T08:31:45.456Z,0.26
2023-05-15T08:33:46.150Z,0.26
2023-05-15T08:35:45.170Z,0.26
2023-05-15T08:37:47.152Z,91.52
2023-05-15T08:39:45.338Z,91.52
2023-05-15T08:42:15.169Z,91.52
2023-05-15T08:43:45.398Z,89.13
2023-05-15T08:45:44.893Z,89.13
2023-05-15T08:47:46.150Z,89.13
2023-05-15T08:49:46.094Z,0.23
2023-05-15T08:51:45.022Z,0.23
2023-05-15T08:53:45.458Z,0.23
2023-05-15T08:55:46.371Z,0.24
2023-05-15T08:57:45.569Z,0.24
2023-05-15T08:59:45.316Z,0.24
2023-05-15T09:01:52.425Z,91.52
2023-05-15T09:03:46.914Z,91.52
2023-05-15T09:05:45.570Z,91.52
2023-05-15T09:07:45.075Z,0.23
2023-05-15T09:09:45.417Z,0.23
2023-05-15T09:11:45.330Z,0.23
2023-05-15T09:13:45.638Z,93.94
2023-05-15T09:15:44.904Z,93.94
2023-05-15T09:17:46.598Z,93.94
2023-05-15T09:19:45.970Z,89.13
2023-05-15T09:21:45.044Z,89.13
2023-05-15T09:23:45.484Z,89.13
2023-05-15T09:25:45.772Z,0.25
2023-05-15T09:27:44.900Z,0.25
2023-05-15T09:29:45.491Z,0.25
2023-05-15T09:31:45.095Z,0.23
2023-05-15T09:33:46.440Z,0.23
2023-05-15T09:35:44.966Z,0.23
2023-05-15T09:37:45.536Z,79.96
2023-05-15T09:39:45.108Z,79.96
2023-05-15T09:41:45.842Z,79.96
2023-05-15T09:43:45.248Z,0.23
2023-05-15T09:45:44.744Z,0.23
2023-05-15T09:47:47.147Z,0.23
2023-05-15T09:49:45.682Z,79.96
2023-05-15T09:51:45.544Z,79.96
2023-05-15T09:53:45.158Z,79.96
2023-05-15T09:55:48.915Z,79.96
2023-05-15T09:57:45.332Z,79.96
2023-05-15T09:59:45.629Z,79.96
2023-05-15T10:01:58.738Z,73.47
2023-05-15T10:03:45.540Z,73.47
2023-05-15T10:06:05.393Z,73.47
2023-05-15T10:07:45.108Z,0.24
2023-05-15T10:09:45.510Z,0.24
2023-05-15T10:11:45.701Z,0.24
2023-05-15T10:13:45.886Z,126.21
2023-05-15T10:15:45.297Z,126.21
2023-05-15T10:17:46.425Z,126.21
2023-05-15T10:20:02.415Z,123.29
2023-05-15T10:21:45.785Z,123.29
2023-05-15T10:23:44.985Z,123.29
2023-05-15T10:25:45.379Z,0.32
2023-05-15T10:27:45.173Z,0.32
2023-05-15T10:29:45.228Z,0.32
2023-05-15T10:31:45.817Z,123.29
2023-05-15T10:33:45.887Z,123.29
2023-05-15T10:35:45.171Z,123.29
2023-05-15T10:37:45.607Z,0.34
2023-05-15T10:39:44.948Z,0.34
2023-05-15T10:42:02.445Z,0.34
2023-05-15T10:43:45.995Z,0.33
2023-05-15T10:45:45.053Z,0.33
2023-05-15T10:47:46.477Z,0.33
2023-05-15T10:49:45.470Z,0.28
2023-05-15T10:51:45.695Z,0.28
2023-05-15T10:53:45.686Z,0.28
2023-05-15T10:55:45.249Z,98.92
2023-05-15T10:57:49.521Z,98.92
2023-05-15T10:59:44.966Z,98.92
2023-05-15T11:01:50.057Z,98.92
2023-05-15T11:03:59.970Z,98.92
2023-05-15T11:05:46.062Z,98.92
2023-05-15T11:07:46.138Z,0.21
2023-05-15T11:09:45.000Z,0.21
2023-05-15T11:11:47.797Z,0.21
2023-05-15T11:13:45.421Z,0.2
2023-05-15T11:15:45.953Z,0.2
2023-05-15T11:17:47.268Z,0.2
2023-05-15T11:19:46.666Z,65.34
2023-05-15T11:21:46.339Z,65.34
2023-05-15T11:23:45.556Z,65.34
2023-05-15T11:25:45.688Z,0.21
2023-05-15T11:27:45.343Z,0.21
2023-05-15T11:29:45.703Z,0.21
2023-05-15T11:31:46.478Z,69.33
2023-05-15T11:33:46.105Z,69.33
2023-05-15T11:35:45.714Z,69.33
2023-05-15T11:37:46.557Z,0.17
2023-05-15T11:39:45.616Z,0.17
2023-05-15T11:41:45.906Z,0.17
2023-05-15T11:43:44.746Z,63.39
2023-05-15T11:45:45.106Z,63.39
2023-05-15T11:47:46.366Z,63.39
2023-05-15T11:49:46.271Z,0.16
2023-05-15T11:51:45.788Z,0.16
2023-05-15T11:53:44.821Z,0.16
2023-05-15T11:55:45.076Z,69.33
2023-05-15T11:57:45.634Z,69.33
2023-05-15T11:59:45.614Z,69.33
2023-05-15T12:01:50.994Z,104.05
2023-05-15T12:03:45.870Z,104.05
2023-05-15T12:05:58.349Z,104.05
2023-05-15T12:07:45.208Z,0.35
2023-05-15T12:09:45.496Z,0.35
2023-05-15T12:11:45.924Z,0.35
2023-05-15T12:13:44.937Z,129.17
2023-05-15T12:15:45.377Z,129.17
2023-05-15T12:17:45.724Z,129.17
2023-05-15T12:19:46.333Z,0.33
2023-05-15T12:21:49.200Z,0.33
2023-05-15T12:23:48.772Z,0.33
2023-05-15T12:25:48.661Z,0.3
2023-05-15T12:27:45.331Z,0.3
2023-05-15T12:29:45.925Z,0.3
2023-05-15T12:31:46.079Z,0.29
2023-05-15T12:33:45.618Z,0.29
2023-05-15T12:35:45.586Z,0.29
2023-05-15T12:37:45.388Z,0.25
2023-05-15T12:39:44.961Z,0.25
2023-05-15T12:41:47.694Z,0.25
2023-05-15T12:43:44.570Z,98.92
2023-05-15T12:45:45.646Z,98.92
2023-05-15T12:47:45.335Z,98.92
2023-05-15T12:49:45.812Z,75.6
2023-05-15T12:51:45.349Z,75.6
2023-05-15T12:53:45.695Z,75.6
2023-05-15T12:55:45.519Z,63.39
2023-05-15T12:57:47.903Z,63.39
2023-05-15T12:59:45.984Z,63.39
2023-05-15T13:01:54.619Z,0.18
2023-05-15T13:03:46.643Z,0.18
2023-05-15T13:05:44.954Z,0.18
2023-05-15T13:07:58.609Z,0.19
2023-05-15T13:09:45.353Z,0.19
2023-05-15T13:11:45.966Z,0.19
2023-05-15T13:13:45.157Z,0.18
2023-05-15T13:15:45.739Z,0.18
2023-05-15T13:17:45.644Z,0.18
2023-05-15T13:19:46.291Z,61.48
2023-05-15T13:21:45.813Z,61.48
2023-05-15T13:23:47.588Z,61.48
2023-05-15T13:25:46.442Z,63.39
2023-05-15T13:27:44.715Z,63.39
2023-05-15T13:29:45.457Z,63.39
2023-05-15T13:31:46.007Z,59.61
2023-05-15T13:33:45.677Z,59.61
2023-05-15T13:35:45.027Z,59.61
2023-05-15T13:37:45.693Z,0.17
2023-05-15T13:39:44.976Z,0.17
2023-05-15T13:41:46.410Z,0.17
2023-05-15T13:43:48.747Z,0.18
2023-05-15T13:45:44.782Z,0.18
2023-05-15T13:47:46.148Z,0.18
2023-05-15T13:49:45.121Z,69.33
2023-05-15T13:51:46.297Z,69.33
2023-05-15T13:53:44.808Z,69.33
2023-05-15T13:55:51.101Z,0.18
2023-05-15T13:57:45.224Z,0.18
2023-05-15T13:59:45.681Z,0.18
2023-05-15T14:01:54.782Z,65.34
2023-05-15T14:03:50.184Z,65.34
2023-05-15T14:05:45.032Z,65.34
2023-05-15T14:07:45.473Z,0.17
2023-05-15T14:09:45.898Z,0.17
2023-05-15T14:11:46.010Z,0.17
2023-05-15T14:13:46.986Z,69.33
2023-05-15T14:15:45.769Z,69.33
2023-05-15T14:17:45.894Z,69.33
2023-05-15T14:19:45.701Z,0.17
2023-05-15T14:21:46.082Z,0.17
2023-05-15T14:23:45.490Z,0.17
2023-05-15T14:25:45.647Z,0.16
2023-05-15T14:27:45.491Z,0.16
2023-05-15T14:29:44.878Z,0.16
2023-05-15T14:31:45.863Z,0.17
2023-05-15T14:33:45.400Z,0.17
2023-05-15T14:35:45.345Z,0.17
2023-05-15T14:37:45.005Z,57.77
2023-05-15T14:39:46.672Z,57.77
2023-05-15T14:41:45.745Z,57.77
2023-05-15T14:43:45.486Z,0.17
2023-05-15T14:45:45.012Z,0.17
2023-05-15T14:47:46.371Z,0.17
2023-05-15T14:49:45.381Z,0.15
2023-05-15T14:51:46.504Z,0.15
2023-05-15T14:53:45.133Z,0.15
2023-05-15T14:56:05.111Z,61.48
2023-05-15T14:57:45.046Z,61.48
2023-05-15T14:59:45.596Z,61.48
2023-05-15T15:01:49.022Z,69.33
2023-05-15T15:03:46.160Z,69.33
2023-05-15T15:05:45.929Z,69.33
2023-05-15T15:07:45.351Z,0.18
2023-05-15T15:09:46.208Z,0.18
2023-05-15T15:11:45.750Z,0.18
2023-05-15T15:13:44.982Z,69.33
2023-05-15T15:15:45.520Z,69.33
2023-05-15T15:17:45.621Z,69.33
2023-05-15T15:19:46.016Z,0.22
2023-05-15T15:21:45.143Z,0.22
2023-05-15T15:23:45.261Z,0.22
2023-05-15T15:25:47.241Z,0.23
2023-05-15T15:27:45.601Z,0.23
2023-05-15T15:29:45.152Z,0.23
2023-05-15T15:31:46.431Z,84.47
2023-05-15T15:33:45.655Z,84.47
2023-05-15T15:35:48.644Z,84.47
2023-05-15T15:37:45.429Z,0.25
2023-05-15T15:39:45.695Z,0.25
2023-05-15T15:41:46.304Z,0.25
2023-05-15T15:43:47.982Z,79.96
2023-05-15T15:45:45.679Z,79.96
2023-05-15T15:47:45.632Z,79.96
2023-05-15T15:49:45.792Z,82.19
2023-05-15T15:51:45.884Z,82.19
2023-05-15T15:53:45.102Z,82.19
2023-05-15T15:55:47.255Z,79.96
2023-05-15T15:57:45.340Z,79.96
2023-05-15T15:59:45.683Z,79.96
2023-05-15T16:01:51.182Z,0.19
2023-05-15T16:03:46.417Z,0.19
2023-05-15T16:05:45.833Z,0.19
2023-05-15T16:07:45.069Z,61.48
2023-05-15T16:09:49.298Z,61.48
2023-05-15T16:11:56.403Z,61.48
2023-05-15T16:13:46.479Z,57.77
2023-05-15T16:15:59.681Z,57.77
2023-05-15T16:17:45.297Z,57.77
2023-05-15T16:19:47.142Z,55.97
2023-05-15T16:21:45.960Z,55.97
2023-05-15T16:23:45.447Z,55.97
2023-05-15T16:25:45.366Z,55.97
2023-05-15T16:27:45.641Z,57.77
2023-05-15T16:29:45.209Z,57.77
2023-05-15T16:32:01.922Z,0.16
2023-05-15T16:33:45.658Z,0.16
2023-05-15T16:35:47.115Z,0.16
2023-05-15T16:37:45.704Z,55.97
2023-05-15T16:39:45.420Z,55.97
2023-05-15T16:41:46.297Z,55.97
2023-05-15T16:43:45.489Z,55.97
2023-05-15T16:45:44.667Z,0.15
2023-05-15T16:47:46.298Z,0.15
2023-05-15T16:49:47.531Z,0.15
2023-05-15T16:51:45.889Z,0.15
2023-05-15T16:53:45.223Z,0.15
2023-05-15T16:55:45.549Z,0.13
2023-05-15T16:57:45.050Z,0.13
2023-05-15T16:59:45.941Z,0.13
2023-05-15T17:01:51.972Z,0.16
2023-05-15T17:03:46.855Z,0.16
2023-05-15T17:05:44.989Z,0.16
2023-05-15T17:07:45.503Z,65.34
2023-05-15T17:09:49.166Z,63.39
2023-05-15T17:11:46.291Z,63.39
2023-05-15T17:13:45.308Z,0.19
2023-05-15T17:15:46.504Z,0.18
2023-05-15T17:17:45.533Z,0.18
2023-05-15T17:19:45.384Z,0.19
2023-05-15T17:21:47.676Z,0.19
2023-05-15T17:23:46.184Z,0.19
2023-05-15T17:26:00.944Z,75.6
2023-05-15T17:27:44.678Z,75.6
2023-05-15T17:29:48.119Z,75.6
2023-05-15T17:31:46.296Z,0.21
2023-05-15T17:33:47.666Z,75.6
2023-05-15T17:35:45.209Z,75.6
2023-05-15T17:37:45.664Z,77.76
2023-05-15T17:39:45.367Z,0.22
2023-05-15T17:41:45.087Z,0.22
2023-05-15T17:43:45.388Z,0.25
2023-05-15T17:45:45.160Z,0.26
2023-05-15T17:47:45.987Z,0.26
2023-05-15T17:49:45.073Z,101.46
2023-05-15T17:51:46.674Z,0.27
2023-05-15T17:53:45.211Z,0.27
2023-05-15T17:55:45.671Z,93.94
2023-05-15T17:57:45.194Z,0.25
2023-05-15T17:59:44.704Z,0.25
2023-05-15T18:01:48.526Z,0.27
2023-05-15T18:03:46.044Z,0.27
2023-05-15T18:05:46.077Z,0.27
2023-05-15T18:07:45.248Z,104.05
2023-05-15T18:09:47.669Z,104.05
2023-05-15T18:11:56.561Z,104.05
2023-05-15T18:13:45.682Z,96.41
2023-05-15T18:15:48.618Z,98.92
2023-05-15T18:17:45.292Z,98.92
2023-05-15T18:19:46.459Z,0.28
2023-05-15T18:21:48.457Z,104.05
2023-05-15T18:23:45.848Z,104.05
2023-05-15T18:25:45.351Z,98.92
2023-05-15T18:27:45.652Z,0.27
2023-05-15T18:29:45.740Z,0.27
2023-05-15T18:31:46.235Z,0.26
2023-05-15T18:33:45.961Z,98.92
2023-05-15T18:35:45.149Z,98.92
2023-05-15T18:37:47.474Z,93.94
2023-05-15T18:39:44.898Z,0.26
2023-05-15T18:41:45.875Z,0.26
2023-05-15T18:43:45.433Z,101.46
2023-05-15T18:45:45.439Z,0.27
2023-05-15T18:47:45.917Z,0.27
2023-05-15T18:49:45.079Z,104.05
2023-05-15T18:51:45.745Z,0.29
2023-05-15T18:53:45.118Z,0.29
2023-05-15T18:55:45.481Z,0.29
2023-05-15T18:57:44.974Z,0.29
2023-05-15T18:59:45.624Z,0.29
2023-05-15T19:03:47.648Z,0.27
2023-05-15T19:05:46.027Z,0.27
2023-05-15T19:07:44.965Z,0.3
2023-05-15T19:09:45.359Z,0.29
2023-05-15T19:11:47.744Z,0.29
2023-05-15T19:13:44.995Z,106.67
2023-05-15T19:15:45.360Z,0.28
2023-05-15T19:17:46.933Z,0.28
2023-05-15T19:19:46.290Z,0.31
2023-05-15T19:21:45.695Z,0.32
2023-05-15T19:23:45.512Z,0.32
2023-05-15T19:25:45.272Z,123.29
2023-05-15T19:27:44.814Z,123.29
2023-05-15T19:29:45.493Z,123.29
2023-05-15T19:32:02.622Z,0.33
2023-05-15T19:33:45.733Z,0.33
2023-05-15T19:35:48.921Z,0.33
2023-05-15T19:37:45.592Z,0.33
2023-05-15T19:39:45.400Z,0.34
2023-05-15T19:41:47.610Z,0.34
2023-05-15T19:43:45.476Z,0.36
2023-05-15T19:45:45.395Z,135.22
2023-05-15T19:47:45.464Z,135.22
2023-05-15T19:49:45.692Z,0.35
2023-05-15T19:51:45.604Z,132.17
2023-05-15T19:53:45.704Z,132.17
2023-05-15T19:55:45.638Z,132.17
2023-05-15T19:57:45.007Z,0.37
2023-05-15T19:59:45.392Z,0.37
2023-05-15T20:01:49.488Z,147.85
2023-05-15T20:03:47.235Z,0.39
2023-05-15T20:05:45.270Z,0.39
2023-05-15T20:07:45.364Z,147.85
2023-05-15T20:09:45.537Z,147.85
2023-05-15T20:11:45.778Z,147.85
2023-05-15T20:13:47.718Z,138.31
2023-05-15T20:16:01.751Z,0.38
2023-05-15T20:17:45.538Z,0.38
2023-05-15T20:19:46.046Z,0.36
2023-05-15T20:21:45.610Z,132.17
2023-05-15T20:23:45.676Z,132.17
2023-05-15T20:25:47.368Z,141.45
2023-05-15T20:27:45.018Z,0.39
2023-05-15T20:29:45.421Z,0.39
2023-05-15T20:31:45.875Z,144.62
2023-05-15T20:33:46.923Z,141.45
2023-05-15T20:35:45.078Z,141.45
2023-05-15T20:37:45.578Z,0.37
2023-05-15T20:39:45.110Z,0.37
2023-05-15T20:41:46.398Z,0.37
2023-05-15T20:43:45.545Z,0.4
2023-05-15T20:45:44.992Z,151.12
2023-05-15T20:47:49.326Z,151.12
2023-05-15T20:49:44.806Z,151.12
2023-05-15T20:51:46.050Z,151.12
2023-05-15T20:53:45.037Z,151.12
2023-05-15T20:55:45.744Z,151.12
2023-05-15T20:57:45.386Z,151.12
2023-05-15T20:59:45.951Z,151.12
2023-05-15T21:01:50.870Z,151.12
2023-05-15T21:03:46.036Z,151.12
2023-05-15T21:05:45.226Z,151.12
2023-05-15T21:07:45.026Z,151.12
2023-05-15T21:09:45.565Z,151.12
2023-05-15T21:11:45.621Z,151.12
2023-05-15T21:13:45.470Z,151.12
2023-05-15T21:15:45.771Z,151.12
2023-05-15T21:17:45.684Z,151.12
2023-05-15T21:19:45.827Z,151.12
2023-05-15T21:21:45.388Z,151.12
2023-05-15T21:23:45.537Z,151.12
2023-05-15T21:25:45.232Z,151.12
2023-05-15T21:27:45.508Z,151.12
2023-05-15T21:29:45.067Z,151.12
2023-05-15T21:31:46.842Z,151.12
2023-05-15T21:33:45.766Z,151.12
2023-05-15T21:35:45.734Z,151.12
2023-05-15T21:37:45.178Z,151.12
2023-05-15T21:39:45.123Z,151.12
2023-05-15T21:41:46.209Z,151.12
2023-05-15T21:43:45.395Z,151.12
2023-05-15T21:45:45.554Z,151.12
2023-05-15T21:47:45.885Z,151.12
2023-05-15T21:49:45.166Z,1920.06
2023-05-15T21:51:45.997Z,6.87
2023-05-15T21:53:44.991Z,6.87
2023-05-15T21:55:45.430Z,1380.01
2023-05-15T21:57:44.942Z,1262.05
2023-05-15T21:59:45.540Z,1262.05
2023-05-15T22:01:46.266Z,1.98
2023-05-15T22:03:46.304Z,695.47
2023-05-15T22:05:45.816Z,695.47
2023-05-15T22:07:44.981Z,695.47
2023-05-15T22:09:45.737Z,695.47
2023-05-15T22:11:45.897Z,695.47
2023-05-15T22:13:45.654Z,695.47
2023-05-15T22:15:56.695Z,695.47
2023-05-15T22:17:45.463Z,695.47
2023-05-15T22:20:03.482Z,695.47
2023-05-15T22:21:45.342Z,695.47
2023-05-15T22:23:44.720Z,695.47
2023-05-15T22:25:45.222Z,695.47
2023-05-15T22:27:44.900Z,695.47
2023-05-15T22:29:45.366Z,695.47
2023-05-15T22:31:45.377Z,695.47
2023-05-15T22:33:45.845Z,695.47
2023-05-15T22:35:45.059Z,695.47
2023-05-15T22:37:45.569Z,695.47
2023-05-15T22:39:45.178Z,695.47
2023-05-15T22:41:46.317Z,695.47
2023-05-15T22:43:45.472Z,695.47
2023-05-15T22:45:45.243Z,695.47
2023-05-15T22:47:45.856Z,695.47
2023-05-15T22:49:45.303Z,695.47
2023-05-15T22:51:45.935Z,695.47
2023-05-15T22:53:46.164Z,695.47
2023-05-15T22:55:45.143Z,695.47
2023-05-15T22:57:46.037Z,695.47
2023-05-15T22:59:45.109Z,695.47
2023-05-15T23:01:49.675Z,695.47
2023-05-15T23:03:45.906Z,695.47
2023-05-15T23:05:45.487Z,695.47
2023-05-15T23:07:45.630Z,695.47
2023-05-15T23:09:45.353Z,9.58
2023-05-15T23:11:46.395Z,9.58
2023-05-15T23:13:45.697Z,9.58
2023-05-15T23:15:45.157Z,3.86
2023-05-15T23:17:49.845Z,3.86
2023-05-15T23:19:46.159Z,3.86
2023-05-15T23:21:46.820Z,3.86
2023-05-15T23:23:45.959Z,3.86
2023-05-15T23:25:45.457Z,3.86
2023-05-15T23:27:45.819Z,3.86
2023-05-15T23:29:45.121Z,3.86
2023-05-15T23:31:46.731Z,3.86
2023-05-15T23:33:45.625Z,3.86
2023-05-15T23:35:44.731Z,3.86
2023-05-15T23:37:45.272Z,3.86
2023-05-15T23:39:45.057Z,3.86
2023-05-15T23:41:45.963Z,3.86
2023-05-15T23:43:44.880Z,3.86
2023-05-15T23:45:45.715Z,3.86
2023-05-15T23:47:46.107Z,3.86
2023-05-15T23:49:44.940Z,3.86
2023-05-15T23:51:45.649Z,3.86
2023-05-15T23:53:45.068Z,3.86
2023-05-15T23:55:45.595Z,3.86
2023-05-15T23:57:45.044Z,3.86
2023-05-15T23:59:44.935Z,3.86
